Skip Navigation Links Skip Navigation Links

Current Weather

Noatak, Alaska

For information only: do not use for flight planning or navigation.
Latest weather
Observation time Saturday, October 19, 2019 1:56 AM AKDT
Local time Saturday, October 19, 2019 2:20 AM AKDT
Flight conditions Visual Meteorological Conditions
Winds
Wind direction Northeast (50°)
Wind speed 5 mph
Visibility 10 mi.
Sky condition
Ceiling unlimited
Cloud layer scattered clouds 10,000 ft.
Temperature 27°F
Dewpoint 21°F
Altimeter 29.55 in.Hg
Derived measurements
Relative humidity 78%
Wind chill 22°F
Density altitude -1606 ft.
Sea-level pressure 29.58 in.Hg
Remarks
Fully automated report.
Automated weather observing station with precipitation discriminator.
Freezing rain sensor not operating.
METAR PAWN 190956Z AUTO 05004KT 10SM SCT100 M03/M06 A2955 RMK AO2 SLP018 T10281061 FZRANO

Settings

Location code

InnerDrive.Weather 4.0.6770.0 Release CLR 4.0.30319.42000
Copyright ©2018 Inner Drive Technology. All rights reserved. Portions Copyright ©1986-2018 David Braverman.

Find weather

Site navigation


Skip Navigation Links

Place info

Page info

PayPal - The safer, easier way to pay online!

Return home.

Copyright ©2019 Inner Drive Technology. Purveyors of fine, hand-crafted computer software. Page printed 2019-10-19T10:20:40 UTC.